Kensington, New Hampshire
Current Conditions -  °F | °C
As of 2:58 PM on Sunday 25 Jan 2015 (Local Time) from KPSM Reporting Station
Few Clouds Few Clouds  
Wind Chill: 18°   Ceiling: Unl
Heat Index: 30°   Visibility: 10mi
Dew Point:   Wind: 18mph
Humidity: 37%   Direction: 320°NW
Pressure: 29.67"   Gusts: 26mph
Location:  42.9832°N, 70.9915°W
Report Text: KPSM 251958Z 32016G23KT 10SM FEW050 FEW250 M01/M14 A2967 RMK AO2A PK WND 30029/06 SLP052 T10121144
Loading
Personal Weather Stations






























Interactive Weather Map New forecast layout! Learn more

10-Day Weather Forecast

Advertisements
Track Severe Weather on mobile